createdAt,value
2022-09-14T00:01:44.206Z,23.70
2022-09-14T00:04:13.814Z,23.70
2022-09-14T00:06:43.725Z,23.70
2022-09-14T00:09:15.754Z,23.70
2022-09-14T00:11:43.875Z,23.70
2022-09-14T00:14:11.794Z,23.70
2022-09-14T00:16:41.791Z,23.70
2022-09-14T00:19:17.194Z,23.70
2022-09-14T00:21:46.487Z,23.70
2022-09-14T00:24:14.454Z,23.70
2022-09-14T00:26:42.378Z,23.60
2022-09-14T00:29:11.281Z,23.70
2022-09-14T00:31:40.409Z,23.70
2022-09-14T00:34:17.827Z,23.60
2022-09-14T00:36:49.602Z,23.60
2022-09-14T00:39:18.945Z,23.60
2022-09-14T00:41:48.353Z,23.60
2022-09-14T00:44:54.878Z,23.60
2022-09-14T00:47:22.859Z,23.60
2022-09-14T00:49:50.791Z,23.60
2022-09-14T00:52:23.910Z,23.60
2022-09-14T00:54:54.555Z,23.60
2022-09-14T00:57:23.610Z,23.60
2022-09-14T00:59:53.802Z,23.60
2022-09-14T01:02:24.014Z,23.60
2022-09-14T01:04:52.681Z,23.60
2022-09-14T01:07:35.368Z,23.60
2022-09-14T01:10:15.410Z,23.50
2022-09-14T01:12:54.495Z,23.50
2022-09-14T01:15:43.081Z,23.50
2022-09-14T01:18:16.771Z,23.50
2022-09-14T01:20:52.894Z,23.50
2022-09-14T01:23:30.189Z,23.50
2022-09-14T01:26:39.088Z,23.50
2022-09-14T01:29:15.069Z,23.50
2022-09-14T01:31:50.171Z,23.50
2022-09-14T01:34:23.550Z,23.50
2022-09-14T01:36:57.816Z,23.50
2022-09-14T01:39:28.244Z,23.50
2022-09-14T01:41:57.350Z,23.50
2022-09-14T01:44:31.816Z,23.40
2022-09-14T01:47:04.111Z,23.40
2022-09-14T01:49:38.068Z,23.40
2022-09-14T01:52:10.128Z,23.40
2022-09-14T01:54:41.954Z,23.40
2022-09-14T01:57:16.847Z,23.40
2022-09-14T01:59:46.941Z,23.50
2022-09-14T02:02:19.662Z,23.40
2022-09-14T02:04:53.413Z,23.40
2022-09-14T02:07:21.878Z,23.40
2022-09-14T02:09:52.259Z,23.40
2022-09-14T02:12:20.490Z,23.40
2022-09-14T02:14:53.971Z,23.40
2022-09-14T02:17:22.925Z,23.40
2022-09-14T02:19:54.221Z,23.40
2022-09-14T02:22:22.184Z,23.40
2022-09-14T02:24:50.885Z,23.40
2022-09-14T02:27:18.804Z,23.40
2022-09-14T02:29:47.067Z,23.40
2022-09-14T02:32:24.618Z,23.40
2022-09-14T02:35:01.327Z,23.40
2022-09-14T02:37:37.550Z,23.40
2022-09-14T02:40:14.332Z,23.40
2022-09-14T02:42:48.829Z,23.40
2022-09-14T02:45:25.545Z,23.40
2022-09-14T02:48:04.678Z,23.30
2022-09-14T02:50:40.290Z,23.40
2022-09-14T02:53:14.471Z,23.30
2022-09-14T02:55:47.814Z,23.30
2022-09-14T02:58:16.393Z,23.30
2022-09-14T03:00:46.556Z,23.30
2022-09-14T03:03:18.010Z,23.30
2022-09-14T03:05:46.105Z,23.40
2022-09-14T03:08:14.338Z,23.30
2022-09-14T03:10:44.190Z,23.30
2022-09-14T03:13:12.232Z,23.30
2022-09-14T03:15:40.490Z,23.30
2022-09-14T03:18:13.634Z,23.30
2022-09-14T03:20:43.825Z,23.30
2022-09-14T03:23:12.590Z,23.30
2022-09-14T03:25:45.447Z,23.30
2022-09-14T03:28:14.160Z,23.30
2022-09-14T03:30:42.308Z,23.30
2022-09-14T03:33:10.211Z,23.30
2022-09-14T03:35:38.127Z,23.30
2022-09-14T03:38:07.844Z,23.30
2022-09-14T03:40:35.942Z,23.20
2022-09-14T03:43:03.851Z,23.20
2022-09-14T03:45:31.700Z,23.20
2022-09-14T03:47:59.576Z,23.20
2022-09-14T03:50:27.442Z,23.20
2022-09-14T03:52:56.119Z,23.20
2022-09-14T03:55:25.403Z,23.20
2022-09-14T03:57:56.045Z,23.20
2022-09-14T04:00:24.568Z,23.20
2022-09-14T04:02:52.627Z,23.20
2022-09-14T04:05:21.944Z,23.20
2022-09-14T04:07:52.759Z,23.20
2022-09-14T04:10:20.698Z,23.20
2022-09-14T04:12:49.916Z,23.20
2022-09-14T04:15:18.350Z,23.20
2022-09-14T04:17:47.565Z,23.20
2022-09-14T04:20:15.501Z,23.20
2022-09-14T04:22:43.411Z,23.20
2022-09-14T04:25:11.395Z,23.20
2022-09-14T04:27:41.670Z,23.20
2022-09-14T04:30:12.160Z,23.20
2022-09-14T04:32:40.014Z,23.10
2022-09-14T04:35:10.177Z,23.20
2022-09-14T04:37:38.041Z,23.10
2022-09-14T04:40:06.885Z,23.10
2022-09-14T04:42:34.787Z,23.10
2022-09-14T04:45:02.661Z,23.10
2022-09-14T04:47:31.874Z,23.20
2022-09-14T04:49:59.774Z,23.10
2022-09-14T04:52:27.623Z,23.10
2022-09-14T04:54:55.514Z,23.10
2022-09-14T04:57:23.367Z,23.10
2022-09-14T04:59:51.302Z,23.10
2022-09-14T05:02:19.278Z,23.10
2022-09-14T05:04:48.590Z,23.10
2022-09-14T05:07:16.427Z,23.10
2022-09-14T05:09:44.295Z,23.10
2022-09-14T05:12:12.144Z,23.10
2022-09-14T05:14:39.975Z,23.10
2022-09-14T05:17:07.820Z,23.10
2022-09-14T05:19:35.675Z,23.00
2022-09-14T05:22:05.097Z,23.10
2022-09-14T05:24:32.945Z,23.00
2022-09-14T05:27:02.300Z,23.00
2022-09-14T05:29:31.795Z,23.00
2022-09-14T05:31:59.748Z,23.00
2022-09-14T05:34:27.748Z,23.00
2022-09-14T05:36:55.595Z,23.00
2022-09-14T05:39:24.973Z,23.00
2022-09-14T05:41:52.985Z,23.00
2022-09-14T05:44:20.834Z,23.00
2022-09-14T05:46:48.769Z,23.00
2022-09-14T05:49:16.720Z,23.00
2022-09-14T05:51:44.622Z,23.00
2022-09-14T05:54:12.480Z,23.00
2022-09-14T05:56:41.675Z,23.00
2022-09-14T05:59:10.749Z,23.00
2022-09-14T06:01:39.932Z,23.00
2022-09-14T06:04:08.166Z,22.90
2022-09-14T06:06:36.014Z,22.90
2022-09-14T06:09:04.444Z,22.90
2022-09-14T06:11:36.240Z,22.90
2022-09-14T06:14:06.012Z,22.90
2022-09-14T06:16:34.160Z,22.90
2022-09-14T06:19:02.424Z,22.90
2022-09-14T06:21:32.864Z,22.90
2022-09-14T06:24:00.933Z,22.90
2022-09-14T06:26:28.865Z,22.90
2022-09-14T06:28:56.848Z,22.90
2022-09-14T06:31:26.093Z,22.90
2022-09-14T06:33:54.406Z,22.90
2022-09-14T06:36:23.745Z,22.90
2022-09-14T06:38:52.443Z,22.90
2022-09-14T06:41:22.765Z,22.80
2022-09-14T06:43:52.110Z,22.90
2022-09-14T06:46:22.022Z,22.90
2022-09-14T06:48:52.852Z,22.90
2022-09-14T06:51:22.938Z,22.80
2022-09-14T06:53:51.408Z,22.90
2022-09-14T06:56:19.612Z,22.80
2022-09-14T06:58:47.929Z,22.80
2022-09-14T07:01:19.713Z,22.80
2022-09-14T07:03:48.734Z,22.80
2022-09-14T07:06:20.910Z,22.80
2022-09-14T07:08:49.954Z,22.80
2022-09-14T07:11:20.927Z,22.80
2022-09-14T07:13:49.564Z,22.80
2022-09-14T07:16:17.789Z,22.80
2022-09-14T07:18:45.793Z,22.80
2022-09-14T07:21:16.454Z,22.70
2022-09-14T07:23:47.438Z,22.80
2022-09-14T07:26:16.955Z,22.80
2022-09-14T07:28:46.704Z,22.80
2022-09-14T07:31:19.692Z,22.80
2022-09-14T07:33:47.867Z,22.80
2022-09-14T07:36:16.635Z,22.80
2022-09-14T07:38:52.721Z,22.60
2022-09-14T07:41:21.614Z,22.70
2022-09-14T07:43:53.958Z,22.70
2022-09-14T07:46:22.642Z,22.70
2022-09-14T07:48:55.550Z,22.70
2022-09-14T07:51:23.850Z,22.70
2022-09-14T07:53:53.334Z,22.70
2022-09-14T07:56:22.077Z,22.70
2022-09-14T07:58:54.636Z,22.70
2022-09-14T08:01:23.741Z,22.70
2022-09-14T08:03:51.746Z,22.70
2022-09-14T08:06:22.367Z,22.70
2022-09-14T08:08:53.411Z,22.70
2022-09-14T08:11:22.659Z,22.70
2022-09-14T08:13:52.157Z,22.70
2022-09-14T08:16:21.142Z,22.70
2022-09-14T08:18:53.461Z,22.70
2022-09-14T08:21:21.538Z,22.70
2022-09-14T08:23:49.452Z,22.70
2022-09-14T08:26:21.587Z,22.70
2022-09-14T08:28:50.504Z,22.70
2022-09-14T08:31:20.987Z,22.70
2022-09-14T08:33:51.091Z,22.70
2022-09-14T08:36:21.419Z,22.70
2022-09-14T08:38:49.634Z,22.70
2022-09-14T08:41:32.770Z,22.70
2022-09-14T08:44:03.335Z,22.70
2022-09-14T08:46:36.694Z,22.70
2022-09-14T08:49:12.441Z,22.70
2022-09-14T08:51:40.640Z,22.70
2022-09-14T08:54:10.798Z,22.70
2022-09-14T08:56:44.729Z,22.70
2022-09-14T08:59:29.232Z,22.70
2022-09-14T09:02:06.486Z,22.70
2022-09-14T09:04:48.027Z,22.70
2022-09-14T09:07:22.851Z,22.60
2022-09-14T09:09:53.219Z,22.70
2022-09-14T09:12:25.295Z,22.60
2022-09-14T09:14:56.523Z,22.60
2022-09-14T09:17:28.991Z,22.60
2022-09-14T09:20:05.227Z,22.60
2022-09-14T09:22:40.284Z,22.70
2022-09-14T09:25:16.581Z,22.70
2022-09-14T09:27:47.595Z,22.60
2022-09-14T09:30:16.466Z,22.60
2022-09-14T09:32:44.674Z,22.70
2022-09-14T09:35:24.646Z,22.70
2022-09-14T09:37:52.787Z,22.70
2022-09-14T09:40:29.649Z,22.70
2022-09-14T09:43:10.908Z,22.70
2022-09-14T09:45:49.993Z,22.60
2022-09-14T09:48:21.553Z,22.70
2022-09-14T09:50:51.828Z,22.60
2022-09-14T09:53:23.432Z,22.70
2022-09-14T09:55:51.729Z,22.70
2022-09-14T09:58:29.141Z,22.70
2022-09-14T10:00:58.792Z,22.70
2022-09-14T10:03:39.205Z,22.70
2022-09-14T10:06:10.026Z,22.80
2022-09-14T10:08:43.605Z,22.80
2022-09-14T10:11:37.619Z,22.80
2022-09-14T10:14:21.309Z,22.80
2022-09-14T10:16:49.303Z,22.80
2022-09-14T10:19:23.263Z,22.80
2022-09-14T10:22:04.860Z,22.80
2022-09-14T10:24:35.579Z,22.80
2022-09-14T10:27:03.700Z,22.80
2022-09-14T10:29:39.992Z,22.80
2022-09-14T10:32:17.639Z,22.80
2022-09-14T10:34:45.697Z,22.80
2022-09-14T10:37:29.515Z,22.80
2022-09-14T10:40:20.392Z,22.80
2022-09-14T10:42:58.876Z,22.70
2022-09-14T10:45:35.502Z,22.70
2022-09-14T10:48:40.985Z,22.70
2022-09-14T10:51:30.151Z,22.70
2022-09-14T10:54:09.327Z,22.60
2022-09-14T10:56:53.290Z,22.40
2022-09-14T10:59:31.725Z,22.30
2022-09-14T11:02:20.415Z,22.20
2022-09-14T11:05:04.920Z,22.10
2022-09-14T11:07:38.900Z,22.00
2022-09-14T11:10:18.473Z,22.00
2022-09-14T11:12:55.591Z,21.80
2022-09-14T11:15:29.526Z,21.80
2022-09-14T11:18:11.158Z,21.80
2022-09-14T11:20:49.815Z,21.90
2022-09-14T11:23:31.715Z,22.00
2022-09-14T11:26:04.704Z,22.00
2022-09-14T11:28:37.931Z,22.10
2022-09-14T11:31:12.065Z,22.10
2022-09-14T11:33:47.028Z,22.20
2022-09-14T11:36:20.636Z,22.20
2022-09-14T11:38:53.368Z,22.20
2022-09-14T11:41:28.063Z,22.20
2022-09-14T11:44:01.212Z,22.30
2022-09-14T11:46:33.709Z,22.30
2022-09-14T11:49:12.984Z,22.30
2022-09-14T11:51:47.452Z,22.30
2022-09-14T11:54:17.711Z,22.30
2022-09-14T11:56:49.681Z,22.30
2022-09-14T11:59:36.587Z,22.30
2022-09-14T12:02:37.137Z,22.30
2022-09-14T12:05:29.863Z,22.30
2022-09-14T12:08:04.279Z,22.30
2022-09-14T12:10:32.448Z,22.30
2022-09-14T12:13:20.990Z,22.30
2022-09-14T12:15:49.043Z,22.30
2022-09-14T12:18:25.543Z,22.30
2022-09-14T12:21:08.024Z,22.30
2022-09-14T12:23:48.028Z,22.30
2022-09-14T12:26:37.144Z,22.30
2022-09-14T12:29:21.880Z,22.30
2022-09-14T12:32:25.204Z,22.30
2022-09-14T12:35:26.553Z,22.30
2022-09-14T12:37:55.888Z,22.30
2022-09-14T12:40:38.141Z,22.30
2022-09-14T12:43:51.007Z,22.30
2022-09-14T12:46:40.233Z,22.30
2022-09-14T12:49:31.652Z,22.30
2022-09-14T12:52:05.630Z,22.30
2022-09-14T12:54:51.431Z,22.30
2022-09-14T12:57:30.370Z,22.30
2022-09-14T13:00:06.389Z,22.30
2022-09-14T13:03:05.076Z,22.30
2022-09-14T13:05:35.016Z,22.30
2022-09-14T13:08:11.248Z,22.30
2022-09-14T13:10:46.308Z,22.30
2022-09-14T13:13:18.740Z,22.30
2022-09-14T13:15:53.361Z,22.30
2022-09-14T13:18:33.646Z,22.30
2022-09-14T13:21:03.502Z,22.30
2022-09-14T13:23:36.894Z,22.30
2022-09-14T13:26:13.262Z,22.30
2022-09-14T13:28:44.120Z,22.30
2022-09-14T13:31:14.971Z,22.30
2022-09-14T13:33:49.835Z,22.30
2022-09-14T13:36:19.933Z,22.30
2022-09-14T13:38:48.714Z,22.30
2022-09-14T13:41:22.213Z,22.30
2022-09-14T13:43:54.060Z,22.30
2022-09-14T13:46:23.068Z,22.30
2022-09-14T13:48:52.200Z,22.30
2022-09-14T13:51:25.371Z,22.30
2022-09-14T13:53:55.565Z,22.30
2022-09-14T13:56:30.887Z,22.30
2022-09-14T13:59:18.675Z,22.30
2022-09-14T14:01:57.317Z,22.30
2022-09-14T14:04:35.158Z,22.30
2022-09-14T14:07:09.454Z,22.30
2022-09-14T14:09:46.693Z,22.30
2022-09-14T14:12:26.882Z,22.30
2022-09-14T14:14:56.999Z,22.30
2022-09-14T14:17:34.511Z,22.30
2022-09-14T14:20:29.319Z,22.30
2022-09-14T14:22:58.781Z,22.30
2022-09-14T14:25:32.868Z,22.30
2022-09-14T14:28:04.208Z,22.30
2022-09-14T14:30:34.683Z,22.30
2022-09-14T14:33:02.595Z,22.30
2022-09-14T14:35:32.351Z,22.30
2022-09-14T14:38:00.249Z,22.30
2022-09-14T14:40:28.807Z,22.30
2022-09-14T14:42:58.700Z,22.30
2022-09-14T14:45:28.686Z,22.30
2022-09-14T14:47:57.189Z,22.30
2022-09-14T14:50:26.988Z,22.30
2022-09-14T14:52:55.441Z,22.30
2022-09-14T14:55:24.649Z,22.30
2022-09-14T14:57:54.071Z,22.40
2022-09-14T15:00:23.982Z,22.30
2022-09-14T15:02:53.269Z,22.30
2022-09-14T15:05:21.246Z,22.30
2022-09-14T15:07:52.119Z,22.30
2022-09-14T15:10:20.851Z,22.30
2022-09-14T15:12:48.777Z,22.30
2022-09-14T15:15:19.451Z,22.30
2022-09-14T15:17:47.632Z,22.30
2022-09-14T15:20:19.892Z,22.30
2022-09-14T15:22:47.927Z,22.30
2022-09-14T15:25:17.738Z,22.30
2022-09-14T15:27:45.650Z,22.30
2022-09-14T15:30:14.876Z,22.30
2022-09-14T15:32:43.271Z,22.20
2022-09-14T15:35:14.127Z,22.30
2022-09-14T15:37:43.506Z,22.30
2022-09-14T15:40:12.169Z,22.20
2022-09-14T15:42:40.322Z,22.20
2022-09-14T15:45:08.898Z,22.20
2022-09-14T15:47:36.911Z,22.20
2022-09-14T15:50:06.149Z,22.20
2022-09-14T15:52:36.747Z,22.20
2022-09-14T15:55:07.649Z,22.20
2022-09-14T15:57:36.121Z,22.20
2022-09-14T16:00:05.600Z,22.20
2022-09-14T16:02:33.573Z,22.20
2022-09-14T16:05:01.602Z,22.20
2022-09-14T16:07:29.757Z,22.20
2022-09-14T16:09:59.064Z,22.20
2022-09-14T16:12:28.554Z,22.20
2022-09-14T16:14:56.461Z,22.20
2022-09-14T16:17:24.379Z,22.20
2022-09-14T16:19:52.939Z,22.20
2022-09-14T16:22:21.694Z,22.10
2022-09-14T16:24:49.759Z,22.10
2022-09-14T16:27:17.670Z,22.10
2022-09-14T16:29:46.914Z,22.10
2022-09-14T16:32:14.849Z,22.10
2022-09-14T16:34:42.784Z,22.10
2022-09-14T16:37:10.653Z,22.10
2022-09-14T16:39:38.537Z,22.10
2022-09-14T16:42:07.105Z,22.10
2022-09-14T16:44:35.026Z,22.10
2022-09-14T16:47:04.321Z,22.10
2022-09-14T16:49:32.204Z,22.10
2022-09-14T16:52:00.933Z,22.10
2022-09-14T16:54:29.799Z,22.10
2022-09-14T16:56:59.262Z,22.10
2022-09-14T16:59:27.592Z,22.10
2022-09-14T17:01:56.043Z,22.10
2022-09-14T17:04:26.051Z,22.10
2022-09-14T17:06:55.909Z,22.10
2022-09-14T17:09:26.959Z,22.10
2022-09-14T17:11:55.712Z,22.10
2022-09-14T17:14:26.235Z,22.10
2022-09-14T17:16:54.517Z,22.10
2022-09-14T17:19:22.479Z,22.20
2022-09-14T17:21:52.121Z,22.10
2022-09-14T17:24:21.527Z,22.20
2022-09-14T17:26:49.443Z,22.20
2022-09-14T17:29:18.259Z,22.20
2022-09-14T17:31:46.852Z,22.20
2022-09-14T17:34:17.004Z,22.20
2022-09-14T17:36:45.441Z,22.20
2022-09-14T17:39:15.496Z,22.20
2022-09-14T17:41:44.305Z,22.20
2022-09-14T17:44:13.677Z,22.20
2022-09-14T17:46:51.243Z,22.20
2022-09-14T17:49:21.014Z,22.20
2022-09-14T17:51:49.260Z,22.20
2022-09-14T17:54:19.064Z,22.20
2022-09-14T17:56:47.140Z,22.20
2022-09-14T17:59:19.990Z,22.20
2022-09-14T18:01:48.650Z,22.30
2022-09-14T18:04:16.834Z,22.30
2022-09-14T18:06:46.194Z,22.30
2022-09-14T18:09:17.035Z,22.30
2022-09-14T18:11:47.087Z,22.30
2022-09-14T18:14:16.044Z,22.30
2022-09-14T18:16:45.423Z,22.30
2022-09-14T18:19:13.898Z,22.30
2022-09-14T18:21:42.122Z,22.30
2022-09-14T18:24:12.065Z,22.30
2022-09-14T18:26:39.933Z,22.30
2022-09-14T18:29:09.190Z,22.30
2022-09-14T18:31:37.125Z,22.30
2022-09-14T18:34:05.050Z,22.30
2022-09-14T18:36:32.931Z,22.30
2022-09-14T18:39:00.798Z,22.30
2022-09-14T18:41:31.222Z,22.30
2022-09-14T18:43:59.899Z,22.30
2022-09-14T18:46:29.615Z,22.30
2022-09-14T18:48:59.427Z,22.40
2022-09-14T18:51:28.367Z,22.40
2022-09-14T18:54:01.009Z,22.40
2022-09-14T18:56:29.664Z,22.40
2022-09-14T18:58:57.700Z,22.40
2022-09-14T19:01:25.724Z,22.40
2022-09-14T19:03:55.993Z,22.40
2022-09-14T19:06:24.402Z,22.50
2022-09-14T19:08:52.598Z,22.40
2022-09-14T19:11:21.811Z,22.40
2022-09-14T19:13:50.812Z,22.50
2022-09-14T19:16:20.035Z,22.50
2022-09-14T19:18:49.570Z,22.40
2022-09-14T19:21:23.679Z,22.40
2022-09-14T19:23:57.360Z,22.50
2022-09-14T19:26:25.270Z,22.50
2022-09-14T19:28:53.213Z,22.50
2022-09-14T19:31:23.410Z,22.50
2022-09-14T19:33:52.221Z,22.40
2022-09-14T19:36:23.646Z,22.50
2022-09-14T19:38:52.976Z,22.50
2022-09-14T19:41:21.844Z,22.50
2022-09-14T19:43:50.139Z,22.50
2022-09-14T19:46:19.713Z,22.50
2022-09-14T19:48:48.107Z,22.50
2022-09-14T19:51:18.691Z,22.50
2022-09-14T19:53:50.079Z,22.50
2022-09-14T19:56:20.107Z,22.50
2022-09-14T19:58:50.256Z,22.40
2022-09-14T20:01:19.814Z,22.50
2022-09-14T20:03:49.058Z,22.50
2022-09-14T20:06:21.158Z,22.50
2022-09-14T20:08:52.315Z,22.50
2022-09-14T20:11:24.291Z,22.50
2022-09-14T20:13:54.621Z,22.50
2022-09-14T20:16:25.464Z,22.50
2022-09-14T20:18:53.557Z,22.40
2022-09-14T20:21:23.366Z,22.40
2022-09-14T20:24:15.221Z,22.40
2022-09-14T20:26:44.074Z,22.40
2022-09-14T20:29:12.124Z,22.40
2022-09-14T20:31:40.033Z,22.40
2022-09-14T20:34:08.001Z,22.50
2022-09-14T20:36:35.937Z,22.50
2022-09-14T20:39:05.840Z,22.40
2022-09-14T20:41:35.687Z,22.50
2022-09-14T20:44:04.824Z,22.50
2022-09-14T20:49:24.265Z,22.50
2022-09-14T20:51:54.153Z,22.40
2022-09-14T20:54:24.044Z,22.50
2022-09-14T20:56:51.970Z,22.50
2022-09-14T20:59:22.146Z,22.50
2022-09-14T21:01:52.441Z,22.50
2022-09-14T21:04:22.065Z,22.50
2022-09-14T21:06:52.455Z,22.40
2022-09-14T21:09:23.200Z,22.50
2022-09-14T21:11:13.157Z,22.50
2022-09-14T21:11:53.113Z,22.40
2022-09-14T21:14:22.105Z,22.40
2022-09-14T21:16:54.991Z,22.40
2022-09-14T21:19:25.011Z,22.50
2022-09-14T21:21:53.365Z,22.50
2022-09-14T21:24:22.899Z,22.40
2022-09-14T21:26:52.235Z,22.50
2022-09-14T21:29:23.492Z,22.50
2022-09-14T21:31:52.245Z,22.40
2022-09-14T21:34:20.341Z,22.50
2022-09-14T21:36:50.768Z,22.50
2022-09-14T21:39:21.514Z,22.40
2022-09-14T21:41:53.429Z,22.50
2022-09-14T21:44:29.307Z,22.50
2022-09-14T21:46:57.229Z,22.50
2022-09-14T21:49:25.150Z,22.50
2022-09-14T21:51:53.083Z,22.40
2022-09-14T21:54:22.197Z,22.40
2022-09-14T21:56:50.129Z,22.30
2022-09-14T21:59:19.412Z,22.20
2022-09-14T22:01:49.573Z,22.30
2022-09-14T22:04:20.990Z,22.20
2022-09-14T22:06:51.255Z,22.20
2022-09-14T22:09:21.441Z,22.20
2022-09-14T22:11:49.354Z,22.20
2022-09-14T22:14:20.166Z,22.20
2022-09-14T22:16:50.167Z,22.20
2022-09-14T22:19:19.889Z,22.20
2022-09-14T22:21:48.531Z,22.20
2022-09-14T22:24:18.950Z,22.10
2022-09-14T22:26:47.466Z,22.10
2022-09-14T22:29:16.518Z,22.10
2022-09-14T22:31:45.798Z,22.10
2022-09-14T22:34:15.918Z,22.10
2022-09-14T22:36:44.022Z,22.10
2022-09-14T22:39:12.336Z,22.10
2022-09-14T22:41:40.748Z,22.10
2022-09-14T22:44:09.481Z,22.10
2022-09-14T22:46:37.459Z,22.10
2022-09-14T22:49:05.373Z,22.10
2022-09-14T22:51:34.591Z,22.10
2022-09-14T22:54:02.955Z,22.10
2022-09-14T22:56:35.231Z,22.00
2022-09-14T22:59:04.723Z,22.00
2022-09-14T23:01:35.255Z,22.10
2022-09-14T23:04:05.426Z,22.00
2022-09-14T23:06:36.830Z,22.00
2022-09-14T23:09:05.611Z,22.00
2022-09-14T23:11:33.617Z,22.00
2022-09-14T23:14:01.516Z,22.00
2022-09-14T23:16:31.126Z,22.00
2022-09-14T23:19:01.123Z,22.00
2022-09-14T23:21:30.971Z,22.00
2022-09-14T23:24:01.883Z,22.00
2022-09-14T23:26:30.652Z,22.00
2022-09-14T23:29:00.767Z,21.90
2022-09-14T23:31:30.049Z,21.90
2022-09-14T23:34:00.858Z,21.90
2022-09-14T23:36:29.785Z,21.90
2022-09-14T23:38:58.276Z,21.90
2022-09-14T23:41:28.288Z,21.90
2022-09-14T23:43:56.250Z,21.90
2022-09-14T23:46:24.361Z,21.90
2022-09-14T23:48:52.513Z,21.90
2022-09-14T23:51:20.577Z,21.90
2022-09-14T23:53:48.445Z,21.90
2022-09-14T23:56:16.353Z,21.90
2022-09-14T23:58:46.501Z,21.90
